Time;durP1;ratioP1;P1;durP2;ratioP2;P2;SDS_P1;SDS_P2;PMS_P1;PMS_P2;Temp;Humidity;BMP_temperature;BMP_pressure;BME280_temperature;BME280_humidity;BME280_pressure;Samples;Min_cycle;Max_cycle;Signal;HPM_P1;HPM_P2
2023/08/10 00:01:31;;;;;;;2.67;1.80;;;;;;;19.73;66.14;101118.34;10531095;28;20411;-77
2023/08/10 00:06:33;;;;;;;3.78;1.95;;;;;;;19.95;65.92;101114.50;10528459;28;20040;-77
2023/08/10 00:11:35;;;;;;;4.90;1.98;;;;;;;19.46;67.00;101130.66;10528068;28;20051;-77
2023/08/10 00:16:37;;;;;;;4.97;2.10;;;;;;;19.62;66.36;101125.44;10510414;28;20033;-76
2023/08/10 00:21:40;;;;;;;3.33;2.38;;;;;;;19.79;65.68;101132.94;10510308;28;20044;-77
2023/08/10 00:26:42;;;;;;;5.72;2.40;;;;;;;19.80;65.33;101134.56;10527711;28;20053;-77
2023/08/10 00:31:44;;;;;;;4.68;2.30;;;;;;;19.62;65.92;101144.09;10508997;28;20041;-76
2023/08/10 00:36:46;;;;;;;4.05;2.30;;;;;;;19.60;65.39;101152.75;10509320;28;20043;-77
2023/08/10 00:41:48;;;;;;;3.75;2.00;;;;;;;19.64;64.79;101156.56;10490164;28;20049;-77
2023/08/10 00:46:51;;;;;;;2.67;2.03;;;;;;;19.73;63.65;101167.66;10467942;28;20044;-77
2023/08/10 00:51:53;;;;;;;3.53;2.10;;;;;;;19.76;62.71;101167.81;10501860;28;20043;-77
2023/08/10 00:56:56;;;;;;;2.83;1.88;;;;;;;19.71;62.90;101176.34;10507443;28;20048;-76
2023/08/10 01:01:59;;;;;;;3.92;2.10;;;;;;;19.76;62.45;101169.78;10477161;28;20033;-77
2023/08/10 01:07:24;;;;;;;8.07;2.40;;;;;;;19.66;61.93;101179.31;10483535;28;20060;-77
2023/08/10 01:13:04;;;;;;;5.38;2.47;;;;;;;19.62;62.42;101188.66;10494160;28;20041;-76
2023/08/10 01:18:10;;;;;;;3.05;2.20;;;;;;;19.53;62.13;101186.66;10466072;28;20625;-77
2023/08/10 01:23:21;;;;;;;4.17;2.43;;;;;;;19.64;62.31;101189.13;10513915;28;20037;-76
2023/08/10 01:28:24;;;;;;;4.35;2.25;;;;;;;19.35;61.92;101200.91;10467494;28;20041;-77
2023/08/10 01:33:28;;;;;;;3.63;2.10;;;;;;;19.37;62.25;101207.75;10512181;28;20040;-77
2023/08/10 01:38:30;;;;;;;4.88;2.25;;;;;;;18.93;62.93;101206.91;10511510;28;20423;-77
2023/08/10 01:43:32;;;;;;;2.97;2.00;;;;;;;18.73;63.82;101217.78;10474527;28;20048;-77
2023/08/10 01:48:37;;;;;;;2.88;1.73;;;;;;;18.82;62.80;101225.00;10511322;28;20609;-77
2023/08/10 01:53:40;;;;;;;4.47;2.40;;;;;;;18.66;63.13;101232.97;10479248;28;20565;-77
2023/08/10 01:58:42;;;;;;;3.13;1.92;;;;;;;18.86;62.99;101237.13;10492515;28;20083;-77
2023/08/10 02:03:44;;;;;;;3.53;2.08;;;;;;;19.07;62.32;101244.88;10561334;28;20060;-77
2023/08/10 02:08:47;;;;;;;4.30;2.20;;;;;;;19.02;62.06;101247.81;10531258;28;20048;-76
2023/08/10 02:13:49;;;;;;;3.13;2.22;;;;;;;19.12;62.32;101251.13;10514580;28;20052;-77
2023/08/10 02:18:51;;;;;;;5.78;2.17;;;;;;;19.04;62.49;101251.91;10499740;28;20041;-76
2023/08/10 02:23:54;;;;;;;4.88;2.38;;;;;;;19.24;62.07;101251.28;10483525;28;20048;-76
2023/08/10 02:28:56;;;;;;;3.88;2.03;;;;;;;19.53;61.00;101255.41;10539520;28;20073;-77
2023/08/10 02:33:58;;;;;;;2.67;2.10;;;;;;;19.77;60.29;101263.31;10514169;28;20044;-77
2023/08/10 02:39:04;;;;;;;4.13;2.22;;;;;;;19.47;60.91;101271.47;10530602;28;20066;-77
2023/08/10 02:44:06;;;;;;;3.50;1.85;;;;;;;19.18;61.49;101276.81;10535652;28;20051;-77
2023/08/10 02:49:09;;;;;;;3.40;2.03;;;;;;;19.08;62.23;101279.88;10512012;28;20055;-76
2023/08/10 02:54:11;;;;;;;4.03;2.13;;;;;;;18.97;62.74;101285.75;10543579;28;20529;-77
2023/08/10 02:59:13;;;;;;;4.15;2.30;;;;;;;19.88;60.96;101292.47;10535496;28;20533;-77
2023/08/10 03:04:16;;;;;;;3.30;2.13;;;;;;;20.79;57.79;101291.34;10517910;28;20047;-77
2023/08/10 03:09:18;;;;;;;4.82;1.75;;;;;;;20.98;57.76;101297.31;10529018;28;20051;-77
2023/08/10 03:14:21;;;;;;;2.67;1.92;;;;;;;21.34;57.15;101290.41;10510349;28;20040;-77
2023/08/10 03:19:23;;;;;;;3.08;1.60;;;;;;;21.88;55.66;101296.94;10511474;28;20040;-77
2023/08/10 03:24:27;;;;;;;7.68;2.40;;;;;;;22.27;53.86;101298.41;10527776;28;20048;-76
2023/08/10 03:29:30;;;;;;;6.32;2.47;;;;;;;22.34;54.27;101308.22;10511385;28;20075;-77
2023/08/10 03:34:33;;;;;;;5.07;2.20;;;;;;;22.27;55.06;101308.78;10494923;28;20529;-76
2023/08/10 03:39:36;;;;;;;6.50;2.22;;;;;;;22.92;53.33;101317.47;10496810;28;20044;-77
2023/08/10 03:44:41;;;;;;;4.32;1.90;;;;;;;23.34;52.84;101318.88;10528689;28;20044;-77
2023/08/10 03:49:43;;;;;;;2.05;1.60;;;;;;;23.93;50.70;101326.72;10524494;28;20061;-76
2023/08/10 03:54:45;;;;;;;3.78;1.40;;;;;;;24.02;50.44;101329.38;10509720;28;20037;-77
2023/08/10 03:59:48;;;;;;;2.78;1.77;;;;;;;23.83;49.61;101323.59;10524117;28;20044;-77
2023/08/10 04:04:50;;;;;;;4.53;1.23;;;;;;;24.13;50.31;101324.91;10510148;28;20047;-77
2023/08/10 04:09:52;;;;;;;3.95;1.50;;;;;;;24.63;48.76;101338.34;10496055;28;20045;-77
2023/08/10 04:14:54;;;;;;;2.35;1.50;;;;;;;24.40;48.98;101336.50;10492904;28;20426;-77
2023/08/10 04:19:57;;;;;;;2.65;1.90;;;;;;;24.37;47.78;101338.03;10508840;28;20047;-76
2023/08/10 04:24:59;;;;;;;3.85;1.40;;;;;;;24.04;47.65;101344.69;10508234;28;20046;-77
2023/08/10 04:30:04;;;;;;;2.38;1.40;;;;;;;24.51;47.74;101343.25;10488133;28;20048;-77
2023/08/10 04:35:06;;;;;;;1.77;1.45;;;;;;;25.68;45.99;101342.63;10499964;28;20132;-76
2023/08/10 04:40:09;;;;;;;2.30;1.40;;;;;;;25.46;46.40;101350.53;10455327;28;20041;-76
2023/08/10 04:45:11;;;;;;;3.10;1.50;;;;;;;25.27;46.66;101353.28;10553672;28;20040;-75
2023/08/10 04:50:14;;;;;;;2.15;1.60;;;;;;;25.19;46.28;101357.91;10557831;28;20052;-76
2023/08/10 04:55:16;;;;;;;2.85;1.48;;;;;;;25.39;45.92;101363.59;10515458;28;20044;-77
2023/08/10 05:00:18;;;;;;;3.00;1.30;;;;;;;26.25;43.46;101363.56;10515728;28;20041;-76
2023/08/10 05:05:21;;;;;;;1.45;1.30;;;;;;;26.43;43.32;101371.19;10498025;28;20041;-76
2023/08/10 05:10:23;;;;;;;1.92;1.20;;;;;;;27.13;41.51;101370.13;10507002;28;20041;-76
2023/08/10 05:15:26;;;;;;;1.55;1.30;;;;;;;27.26;40.54;101374.38;10520198;28;20051;-76
2023/08/10 05:20:28;;;;;;;2.53;1.30;;;;;;;27.20;41.12;101381.50;10521563;28;20051;-76
2023/08/10 05:25:30;;;;;;;4.43;1.23;;;;;;;27.54;38.84;101382.47;10473841;28;20541;-77
2023/08/10 05:30:32;;;;;;;2.78;1.40;;;;;;;27.77;38.89;101390.06;10496104;28;20059;-77
2023/08/10 05:35:35;;;;;;;1.40;1.10;;;;;;;27.80;38.75;101395.78;10522271;28;20041;-77
2023/08/10 05:40:37;;;;;;;2.10;1.00;;;;;;;27.43;38.33;101408.88;10496318;28;20430;-80
2023/08/10 05:45:39;;;;;;;1.70;1.10;;;;;;;27.89;38.34;101403.97;10506269;28;20043;-78
2023/08/10 05:50:41;;;;;;;3.17;1.52;;;;;;;27.75;37.94;101398.91;10553234;28;20047;-78
2023/08/10 05:55:43;;;;;;;2.30;1.30;;;;;;;27.33;37.52;101419.56;10557467;28;20481;-77
2023/08/10 06:00:46;;;;;;;3.72;1.40;;;;;;;28.18;35.90;101419.28;10526275;28;20037;-76
2023/08/10 06:05:49;;;;;;;4.20;1.30;;;;;;;28.07;36.56;101416.31;10488176;28;20052;-77
2023/08/10 06:10:51;;;;;;;1.60;1.10;;;;;;;28.94;34.45;101421.84;10493372;28;20047;-76
2023/08/10 06:15:53;;;;;;;4.10;1.20;;;;;;;28.78;35.74;101425.69;10534058;28;20052;-76
2023/08/10 06:20:55;;;;;;;4.10;1.35;;;;;;;29.04;35.94;101436.09;10533338;28;20040;-76
2023/08/10 06:26:00;;;;;;;4.60;1.48;;;;;;;29.61;35.32;101433.81;10525311;28;20048;-76
2023/08/10 06:31:02;;;;;;;4.00;1.67;;;;;;;29.29;35.52;101444.00;10507112;28;20045;-77
2023/08/10 06:36:06;;;;;;;1.88;1.15;;;;;;;28.53;35.54;101436.72;10513049;28;20049;-77
2023/08/10 06:41:09;;;;;;;1.50;1.00;;;;;;;28.30;35.26;101443.69;10528331;28;20044;-77
2023/08/10 06:46:11;;;;;;;1.35;1.02;;;;;;;29.01;34.45;101458.69;10519894;28;20047;-78
2023/08/10 06:51:13;;;;;;;2.05;1.00;;;;;;;29.31;33.68;101469.88;10507080;28;20045;-78
2023/08/10 06:56:16;;;;;;;1.52;1.23;;;;;;;28.76;33.62;101464.81;10529647;28;20063;-78
2023/08/10 07:01:20;;;;;;;2.60;1.20;;;;;;;29.46;31.92;101482.16;10531102;28;20510;-78
2023/08/10 07:06:22;;;;;;;2.38;0.90;;;;;;;29.50;32.08;101483.00;10514560;28;20052;-78
2023/08/10 07:11:24;;;;;;;1.10;1.00;;;;;;;29.34;31.63;101484.06;10557558;28;20526;-78
2023/08/10 07:16:27;;;;;;;1.00;0.90;;;;;;;29.86;30.92;101489.78;10527071;28;20040;-78
2023/08/10 07:21:29;;;;;;;1.35;0.90;;;;;;;28.65;32.83;101485.69;10510306;28;20044;-78
2023/08/10 07:26:33;;;;;;;2.33;1.00;;;;;;;29.40;29.93;101490.16;10521252;28;20032;-76
2023/08/10 07:31:35;;;;;;;2.08;0.85;;;;;;;29.63;29.64;101493.63;10528939;28;20044;-78
2023/08/10 07:36:37;;;;;;;1.70;0.80;;;;;;;29.59;30.14;101501.28;10509989;28;20406;-78
2023/08/10 07:41:40;;;;;;;2.72;0.93;;;;;;;29.32;31.50;101506.22;10503874;28;20049;-79
2023/08/10 07:46:43;;;;;;;2.42;1.10;;;;;;;29.73;31.28;101500.59;10487663;28;20045;-79
2023/08/10 07:51:47;;;;;;;2.08;0.98;;;;;;;29.27;31.50;101503.75;10492331;28;20044;-79
2023/08/10 07:56:49;;;;;;;0.98;0.98;;;;;;;28.98;31.78;101508.28;10492377;28;20045;-78
2023/08/10 08:01:51;;;;;;;2.88;1.23;;;;;;;29.79;31.13;101503.88;10489577;28;20048;-79
2023/08/10 08:06:54;;;;;;;1.60;1.48;;;;;;;30.23;30.91;101510.28;10520414;28;20060;-79
2023/08/10 08:11:56;;;;;;;4.68;1.42;;;;;;;29.26;32.04;101507.78;10545749;28;20040;-78
2023/08/10 08:16:58;;;;;;;3.08;1.50;;;;;;;30.15;31.34;101517.09;10522103;28;20039;-79
2023/08/10 08:22:00;;;;;;;2.08;1.60;;;;;;;28.75;32.88;101513.22;10523247;28;20391;-79
2023/08/10 08:27:02;;;;;;;1.80;1.30;;;;;;;28.20;33.19;101518.50;10517833;28;20043;-80
2023/08/10 08:32:04;;;;;;;2.45;1.33;;;;;;;28.43;33.20;101516.44;10513365;28;20422;-81
2023/08/10 08:37:07;;;;;;;3.38;1.50;;;;;;;29.11;31.92;101512.47;10487983;28;20036;-81
2023/08/10 08:42:09;;;;;;;2.70;1.67;;;;;;;28.66;33.04;101512.72;10520789;28;20042;-81
2023/08/10 08:47:11;;;;;;;1.48;1.00;;;;;;;28.89;32.57;101513.44;10471254;28;20057;-79
2023/08/10 08:52:13;;;;;;;4.88;1.45;;;;;;;29.80;30.35;101508.31;10493014;28;20044;-80
2023/08/10 08:57:15;;;;;;;3.10;1.50;;;;;;;29.27;30.31;101512.25;10507707;28;20051;-81
2023/08/10 09:02:18;;;;;;;2.28;1.30;;;;;;;28.96;31.04;101513.50;10521271;28;20037;-81
2023/08/10 09:07:20;;;;;;;3.17;1.95;;;;;;;28.87;32.41;101515.84;10519989;28;20048;-81
2023/08/10 09:12:29;;;;;;;4.05;1.63;;;;;;;29.65;30.87;101515.88;10506990;28;20048;-78
2023/08/10 09:17:32;;;;;;;3.90;1.60;;;;;;;29.59;31.49;101518.25;10506591;28;20406;-79
2023/08/10 09:22:35;;;;;;;3.60;1.80;;;;;;;27.94;32.94;101516.47;10514325;28;20064;-77
2023/08/10 09:27:37;;;;;;;3.38;1.52;;;;;;;27.47;32.90;101514.84;10518896;28;20052;-77
2023/08/10 09:32:40;;;;;;;1.70;1.38;;;;;;;26.81;34.78;101527.22;10535163;28;20048;-77
2023/08/10 09:37:44;;;;;;;3.22;1.30;;;;;;;25.72;35.86;101529.06;10533881;28;20041;-77
2023/08/10 09:42:48;;;;;;;2.40;1.60;;;;;;;25.06;36.98;101527.69;10516050;28;20077;-77
2023/08/10 09:47:50;;;;;;;4.00;1.60;;;;;;;24.83;37.88;101530.22;10534320;28;20052;-77
2023/08/10 09:52:52;;;;;;;2.63;1.65;;;;;;;25.14;36.95;101539.91;10533773;28;20040;-77
2023/08/10 09:57:55;;;;;;;2.08;1.58;;;;;;;24.41;37.75;101546.56;10515100;28;20036;-77
2023/08/10 10:02:57;;;;;;;2.13;1.58;;;;;;;23.94;38.74;101551.81;10515342;28;20048;-77
2023/08/10 10:08:00;;;;;;;2.25;1.50;;;;;;;24.51;38.71;101550.88;10532884;28;20056;-77
2023/08/10 10:13:08;;;;;;;1.80;1.42;;;;;;;24.12;39.72;101547.59;10515490;28;20041;-77
2023/08/10 10:18:11;;;;;;;2.65;1.85;;;;;;;24.12;39.71;101547.59;10514474;28;20045;-77
2023/08/10 10:23:17;;;;;;;4.93;1.77;;;;;;;23.80;39.69;101548.53;10515140;28;20033;-77
2023/08/10 10:28:21;;;;;;;4.88;1.70;;;;;;;24.03;38.77;101546.91;10532493;28;20489;-77
2023/08/10 10:33:24;;;;;;;1.88;1.33;;;;;;;23.98;38.03;101549.97;10531832;28;20044;-77
2023/08/10 10:38:26;;;;;;;2.63;1.10;;;;;;;24.12;37.88;101538.38;10535033;28;20048;-77
2023/08/10 10:43:29;;;;;;;1.88;1.45;;;;;;;23.89;37.57;101549.22;10531851;28;20138;-77
2023/08/10 10:48:35;;;;;;;1.33;1.17;;;;;;;24.63;37.89;101548.03;10515442;28;20048;-77
2023/08/10 10:53:38;;;;;;;2.33;1.40;;;;;;;24.44;37.18;101550.63;10531345;28;20033;-77
2023/08/10 10:58:40;;;;;;;2.65;1.10;;;;;;;24.53;35.70;101552.16;10496854;28;20511;-77
2023/08/10 11:03:52;;;;;;;1.77;1.23;;;;;;;24.89;36.21;101551.22;10513562;28;20051;-77
2023/08/10 11:08:55;;;;;;;1.65;1.20;;;;;;;25.10;36.87;101564.28;10535136;28;20044;-77
2023/08/10 11:13:57;;;;;;;2.50;1.40;;;;;;;24.33;36.53;101555.94;10513674;28;20051;-77
2023/08/10 11:18:59;;;;;;;1.50;1.40;;;;;;;24.08;38.92;101554.25;10496033;28;20067;-76
2023/08/10 11:24:02;;;;;;;1.40;1.20;;;;;;;24.19;38.67;101552.63;10512468;28;20047;-77
2023/08/10 11:29:04;;;;;;;3.95;1.80;;;;;;;24.33;37.83;101556.75;10512140;28;20513;-77
2023/08/10 11:34:20;;;;;;;1.60;1.30;;;;;;;24.15;38.40;101558.13;10529785;28;20353;-76
2023/08/10 11:39:23;;;;;;;2.55;1.98;;;;;;;24.41;38.58;101556.97;10564446;28;20036;-77
2023/08/10 11:44:29;;;;;;;1.75;1.40;;;;;;;24.93;37.20;101552.13;10569654;28;20051;-77
2023/08/10 11:49:32;;;;;;;2.33;1.23;;;;;;;24.92;36.67;101535.66;10553896;28;20039;-77
2023/08/10 11:54:37;;;;;;;2.45;1.40;;;;;;;24.77;36.81;101531.59;10535439;28;20055;-77
2023/08/10 11:59:39;;;;;;;2.15;1.30;;;;;;;24.87;37.37;101536.72;10528406;28;20051;-77
2023/08/10 12:04:41;;;;;;;2.97;1.30;;;;;;;24.19;37.25;101539.44;10512005;28;20040;-77
2023/08/10 12:09:47;;;;;;;1.65;1.30;;;;;;;24.38;37.51;101536.03;10518969;28;20047;-76
2023/08/10 12:14:53;;;;;;;2.97;1.50;;;;;;;24.41;37.95;101535.34;10528297;28;20041;-77
2023/08/10 12:19:55;;;;;;;1.67;1.38;;;;;;;24.58;37.29;101539.84;10505878;28;20407;-77
2023/08/10 12:24:57;;;;;;;1.70;1.10;;;;;;;24.42;37.14;101530.53;10527741;28;20047;-76
2023/08/10 12:29:59;;;;;;;2.22;1.60;;;;;;;24.58;37.61;101534.25;10527930;28;20048;-77
2023/08/10 12:35:01;;;;;;;2.83;1.27;;;;;;;24.76;38.58;101527.16;10510410;28;20036;-77
2023/08/10 12:40:05;;;;;;;2.42;1.20;;;;;;;24.81;37.84;101529.72;10527379;28;20053;-76
2023/08/10 12:45:09;;;;;;;3.42;1.45;;;;;;;24.67;37.50;101534.13;10510206;28;20060;-76
2023/08/10 12:50:17;;;;;;;3.58;1.45;;;;;;;24.39;37.53;101536.84;10491029;28;20082;-77
2023/08/10 12:55:20;;;;;;;1.45;1.20;;;;;;;24.44;38.28;101528.19;10523025;28;20041;-77
2023/08/10 13:00:22;;;;;;;1.42;1.33;;;;;;;24.03;38.81;101530.91;10529425;28;20396;-76
2023/08/10 13:05:25;;;;;;;4.40;1.50;;;;;;;23.95;39.20;101528.19;10523020;28;20040;-76
2023/08/10 13:10:27;;;;;;;2.45;1.52;;;;;;;24.28;38.82;101526.06;10526241;28;20430;-77
2023/08/10 13:15:29;;;;;;;2.88;1.50;;;;;;;24.26;39.00;101519.19;10523429;28;20044;-74
2023/08/10 13:20:32;;;;;;;2.33;1.20;;;;;;;24.13;38.46;101524.03;10515225;28;20051;-73
2023/08/10 13:25:35;;;;;;;1.77;1.52;;;;;;;24.51;37.74;101517.19;10518986;28;20043;-74
2023/08/10 13:30:37;;;;;;;3.03;1.48;;;;;;;24.57;38.28;101532.59;10527572;28;20526;-75
2023/08/10 13:35:39;;;;;;;2.38;1.55;;;;;;;24.08;38.95;101532.66;10506331;28;20036;-75
2023/08/10 13:40:41;;;;;;;3.13;1.63;;;;;;;24.23;38.66;101543.16;10524006;28;20411;-74
2023/08/10 13:45:43;;;;;;;1.92;1.30;;;;;;;24.25;37.73;101534.38;10528046;28;20044;-75
2023/08/10 13:50:46;;;;;;;3.90;1.52;;;;;;;24.17;38.90;101529.72;10531795;28;20044;-75
2023/08/10 13:55:48;;;;;;;4.70;1.50;;;;;;;24.40;38.54;101528.09;10490403;28;20040;-78
2023/08/10 14:00:50;;;;;;;1.20;0.95;;;;;;;24.35;37.66;101540.38;10525790;28;20044;-78
2023/08/10 14:05:52;;;;;;;1.50;1.40;;;;;;;24.31;38.42;101530.22;10527463;28;20047;-78
2023/08/10 14:10:55;;;;;;;2.67;1.40;;;;;;;24.17;37.84;101541.78;10541011;28;20044;-78
2023/08/10 14:15:58;;;;;;;2.67;1.30;;;;;;;24.07;38.24;101536.63;10524988;28;20044;-78
2023/08/10 14:21:00;;;;;;;2.33;1.27;;;;;;;23.95;38.13;101528.19;10477833;28;20044;-78
2023/08/10 14:26:03;;;;;;;1.83;1.27;;;;;;;24.28;37.55;101536.47;10503412;28;20036;-78
2023/08/10 14:31:05;;;;;;;2.15;1.38;;;;;;;24.41;37.16;101526.09;10514464;28;20048;-78
2023/08/10 14:36:10;;;;;;;2.53;1.40;;;;;;;24.61;37.23;101530.72;10532109;28;20055;-78
2023/08/10 14:41:12;;;;;;;1.95;1.50;;;;;;;24.54;36.94;101528.53;10535402;28;20042;-78
2023/08/10 14:46:14;;;;;;;1.65;1.38;;;;;;;24.50;38.00;101533.22;10528981;28;20044;-77
2023/08/10 14:51:17;;;;;;;1.92;1.42;;;;;;;24.63;36.94;101539.59;10530667;28;20482;-77
2023/08/10 14:56:19;;;;;;;2.30;1.20;;;;;;;24.51;37.92;101539.66;10496870;28;20049;-77
2023/08/10 15:01:22;;;;;;;1.73;1.05;;;;;;;24.39;37.75;101540.47;10531068;28;20036;-77
2023/08/10 15:06:24;;;;;;;1.65;1.30;;;;;;;24.36;38.48;101535.59;10531211;28;20040;-77
2023/08/10 15:11:26;;;;;;;1.48;1.20;;;;;;;24.45;37.93;101538.25;10569873;28;20059;-77
2023/08/10 15:16:28;;;;;;;2.70;1.35;;;;;;;24.55;38.09;101544.19;10572208;28;20047;-77
2023/08/10 15:21:31;;;;;;;3.00;1.50;;;;;;;24.66;37.64;101555.75;10535196;28;20041;-77
2023/08/10 15:26:33;;;;;;;1.90;1.30;;;;;;;24.42;37.84;101559.41;10512020;28;20037;-77
2023/08/10 15:31:35;;;;;;;1.85;1.50;;;;;;;24.23;38.48;101559.97;10564934;28;20395;-77
2023/08/10 15:36:38;;;;;;;2.05;1.10;;;;;;;24.09;37.64;101562.31;10568908;28;20059;-77
2023/08/10 15:41:40;;;;;;;2.70;1.50;;;;;;;23.85;38.46;101556.72;10511687;28;20047;-77
2023/08/10 15:46:43;;;;;;;2.10;1.23;;;;;;;23.89;38.41;101575.28;10528894;28;20499;-77
2023/08/10 15:51:45;;;;;;;2.22;1.23;;;;;;;23.70;38.10;101569.41;10531494;28;20051;-77
2023/08/10 15:56:47;;;;;;;2.38;1.52;;;;;;;23.84;38.58;101569.09;10523120;28;20051;-77
2023/08/10 16:01:50;;;;;;;1.95;1.30;;;;;;;23.98;38.66;101572.38;10514567;28;20044;-77
2023/08/10 16:06:53;;;;;;;2.05;1.55;;;;;;;23.79;39.12;101569.34;10513297;28;20048;-76
2023/08/10 16:11:56;;;;;;;2.53;1.30;;;;;;;23.89;39.77;101568.84;10504918;28;20053;-76
2023/08/10 16:16:58;;;;;;;2.33;1.58;;;;;;;23.83;39.26;101565.47;10493565;28;20044;-78
2023/08/10 16:22:00;;;;;;;4.22;2.38;;;;;;;23.75;40.26;101575.59;10527684;28;20044;-78
2023/08/10 16:27:03;;;;;;;3.90;1.70;;;;;;;23.62;40.43;101576.78;10527771;28;20040;-78
2023/08/10 16:32:06;;;;;;;3.33;1.65;;;;;;;23.76;39.45;101563.22;10509560;28;20462;-78
2023/08/10 16:37:08;;;;;;;2.17;1.73;;;;;;;23.61;40.09;101575.13;10527464;28;20424;-77
2023/08/10 16:42:10;;;;;;;3.25;1.80;;;;;;;23.66;40.94;101566.50;10527325;28;20036;-78
2023/08/10 16:47:13;;;;;;;2.00;1.50;;;;;;;23.65;39.95;101576.06;10509349;28;20059;-78
2023/08/10 16:52:15;;;;;;;2.28;1.40;;;;;;;23.58;41.11;101575.81;10525910;28;20060;-78
2023/08/10 16:57:17;;;;;;;2.45;1.48;;;;;;;23.41;40.69;101581.56;10527499;28;20434;-78
2023/08/10 17:02:19;;;;;;;3.38;1.90;;;;;;;23.39;41.11;101586.69;10494857;28;20044;-78
2023/08/10 17:07:21;;;;;;;2.05;1.60;;;;;;;23.40;40.58;101597.56;10526667;28;20502;-78
2023/08/10 17:12:27;;;;;;;3.42;1.95;;;;;;;23.38;41.44;101608.28;10527263;28;20056;-78
2023/08/10 17:17:29;;;;;;;2.05;1.70;;;;;;;23.22;42.05;101612.88;10527602;28;20047;-78
2023/08/10 17:22:31;;;;;;;1.92;1.70;;;;;;;23.01;42.97;101618.50;10509561;28;20045;-78
2023/08/10 17:27:33;;;;;;;2.75;1.77;;;;;;;23.01;43.41;101618.50;10525727;28;20059;-77
2023/08/10 17:32:36;;;;;;;2.45;1.63;;;;;;;22.95;43.50;101619.06;10508259;28;20059;-77
2023/08/10 17:37:38;;;;;;;2.53;1.80;;;;;;;22.81;44.28;101619.28;10526463;28;20045;-77
2023/08/10 17:42:40;;;;;;;2.60;2.05;;;;;;;22.75;44.01;101629.06;10532692;28;20044;-77
2023/08/10 17:47:42;;;;;;;2.65;1.63;;;;;;;22.65;44.90;101633.06;10515714;28;20414;-77
2023/08/10 17:52:44;;;;;;;3.17;2.05;;;;;;;22.59;44.75;101628.84;10515916;28;20056;-77
2023/08/10 17:57:49;;;;;;;3.75;1.83;;;;;;;22.69;44.67;101627.59;10515490;28;20433;-77
2023/08/10 18:02:51;;;;;;;3.50;1.73;;;;;;;22.53;45.20;101636.59;10498214;28;20041;-77
2023/08/10 18:07:54;;;;;;;3.13;1.60;;;;;;;22.58;44.47;101634.78;10533277;28;20044;-77
2023/08/10 18:12:56;;;;;;;3.47;1.75;;;;;;;22.64;44.65;101653.00;10515010;28;20059;-77
2023/08/10 18:17:59;;;;;;;3.65;2.15;;;;;;;22.53;44.57;101639.38;10533972;28;20036;-77
2023/08/10 18:23:01;;;;;;;4.47;2.22;;;;;;;22.49;45.27;101649.63;10533361;28;20055;-77
2023/08/10 18:28:04;;;;;;;3.90;2.38;;;;;;;22.35;48.15;101657.41;10514575;28;20411;-79
2023/08/10 18:33:06;;;;;;;7.35;3.53;;;;;;;22.38;46.31;101659.53;10532344;28;20395;-78
2023/08/10 18:38:08;;;;;;;3.40;2.03;;;;;;;22.40;46.53;101656.44;10532590;28;20052;-78
2023/08/10 18:43:11;;;;;;;3.60;2.13;;;;;;;22.25;46.82;101681.00;10514228;28;20507;-78
2023/08/10 18:48:14;;;;;;;4.90;2.92;;;;;;;22.27;47.97;101683.44;10531966;28;20040;-78
2023/08/10 18:53:16;;;;;;;3.88;2.33;;;;;;;21.68;51.78;101695.22;10514149;28;20041;-78
2023/08/10 18:58:20;;;;;;;3.17;2.70;;;;;;;21.38;53.60;101695.44;10531131;28;20262;-78
2023/08/10 19:03:22;;;;;;;2.45;1.80;;;;;;;21.17;54.66;101698.00;10530939;28;20411;-78
2023/08/10 19:08:25;;;;;;;2.85;2.00;;;;;;;21.17;55.34;101706.38;10513286;28;20036;-78
2023/08/10 19:13:27;;;;;;;2.95;1.90;;;;;;;21.13;55.92;101710.97;10530854;28;20047;-78
2023/08/10 19:18:30;;;;;;;3.00;1.77;;;;;;;20.97;56.88;101713.41;10530884;28;20044;-78
2023/08/10 19:23:33;;;;;;;2.53;1.40;;;;;;;20.84;58.61;101714.38;10531171;28;20486;-78
2023/08/10 19:28:37;;;;;;;2.78;1.90;;;;;;;20.99;56.94;101717.50;10512337;28;20044;-78
2023/08/10 19:33:40;;;;;;;3.92;1.80;;;;;;;21.15;57.10;101715.06;10495491;28;20127;-78
2023/08/10 19:38:42;;;;;;;5.40;1.83;;;;;;;21.05;57.69;101723.78;10530148;28;20486;-78
2023/08/10 19:43:46;;;;;;;3.22;1.88;;;;;;;20.82;58.11;101713.88;10530043;28;20203;-78
2023/08/10 19:48:48;;;;;;;2.40;1.88;;;;;;;20.91;57.81;101720.31;10544091;28;20039;-77
2023/08/10 19:53:51;;;;;;;2.97;1.58;;;;;;;20.69;57.93;101724.84;10572010;28;20055;-78
2023/08/10 19:58:53;;;;;;;3.83;1.90;;;;;;;20.76;58.56;101725.19;10571084;28;20052;-77
2023/08/10 20:03:56;;;;;;;4.40;2.03;;;;;;;20.76;57.94;101730.75;10552576;28;20039;-78
2023/08/10 20:08:58;;;;;;;2.22;1.73;;;;;;;20.89;58.04;101744.91;10566429;28;20044;-77
2023/08/10 20:14:01;;;;;;;4.00;1.80;;;;;;;20.87;57.22;101736.88;10530552;28;20053;-78
2023/08/10 20:19:04;;;;;;;3.47;2.50;;;;;;;20.84;58.41;101745.06;10510051;28;20048;-78
2023/08/10 20:24:07;;;;;;;2.95;2.40;;;;;;;20.73;58.69;101728.63;10510347;28;20052;-77
2023/08/10 20:29:09;;;;;;;3.47;2.10;;;;;;;20.53;60.06;101742.34;10510124;28;20056;-77
2023/08/10 20:34:12;;;;;;;7.50;2.65;;;;;;;20.57;60.42;101733.00;10528111;28;20040;-77
2023/08/10 20:39:14;;;;;;;3.47;2.05;;;;;;;20.30;61.04;101711.69;10527927;28;20045;-77
2023/08/10 20:44:16;;;;;;;3.08;2.22;;;;;;;20.36;60.38;101712.38;10509778;28;20047;-77
2023/08/10 20:49:18;;;;;;;2.63;2.22;;;;;;;20.03;61.19;101723.03;10510122;28;20663;-77
2023/08/10 20:54:21;;;;;;;2.90;2.20;;;;;;;20.08;61.68;101728.44;10509980;28;20040;-78
2023/08/10 20:59:23;;;;;;;4.00;1.95;;;;;;;20.18;61.50;101717.88;10509610;28;20057;-78
2023/08/10 21:04:25;;;;;;;2.55;1.88;;;;;;;20.14;61.47;101730.81;10522199;28;20428;-78
2023/08/10 21:09:28;;;;;;;4.80;1.92;;;;;;;20.21;60.86;101730.34;10527244;28;20040;-77
2023/08/10 21:14:30;;;;;;;3.22;1.90;;;;;;;20.14;60.84;101736.38;10527596;28;20395;-78
2023/08/10 21:19:32;;;;;;;4.53;1.60;;;;;;;20.20;60.28;101734.28;10535262;28;20047;-78
2023/08/10 21:24:34;;;;;;;2.70;2.00;;;;;;;20.43;59.69;101743.44;10535499;28;20487;-76
2023/08/10 21:29:41;;;;;;;6.95;2.00;;;;;;;20.55;59.24;101745.63;10534987;28;20051;-77
2023/08/10 21:34:43;;;;;;;2.40;1.80;;;;;;;20.61;59.08;101745.13;10517819;28;20043;-77
2023/08/10 21:39:45;;;;;;;3.42;2.53;;;;;;;20.53;60.78;101745.13;10534224;28;20055;-77
2023/08/10 21:44:48;;;;;;;4.10;2.83;;;;;;;20.16;63.09;101739.66;10534639;28;20065;-77
2023/08/10 21:49:50;;;;;;;4.25;3.22;;;;;;;20.17;63.76;101751.63;10534178;28;20060;-77
2023/08/10 21:54:52;;;;;;;5.28;3.17;;;;;;;20.04;65.33;101758.91;10529152;28;20041;-76
2023/08/10 21:59:59;;;;;;;4.32;2.90;;;;;;;19.92;66.87;101761.44;10533479;28;20044;-78
2023/08/10 22:05:01;;;;;;;3.42;2.25;;;;;;;19.77;67.98;101754.28;10533240;28;20048;-78
2023/08/10 22:10:04;;;;;;;4.47;3.00;;;;;;;19.58;68.59;101756.44;10538077;28;20032;-78
2023/08/10 22:15:10;;;;;;;3.92;2.25;;;;;;;19.57;68.54;101754.78;10517273;28;20044;-78
2023/08/10 22:20:12;;;;;;;5.55;2.47;;;;;;;19.88;66.77;101760.44;10532599;28;20041;-77
2023/08/10 22:25:14;;;;;;;3.88;2.45;;;;;;;20.02;66.15;101755.63;10516000;28;20048;-78
2023/08/10 22:30:17;;;;;;;2.38;2.17;;;;;;;20.19;65.28;101749.34;10536056;28;20039;-77
2023/08/10 22:35:19;;;;;;;4.15;2.42;;;;;;;20.17;64.47;101746.06;10532465;28;20060;-77
2023/08/10 22:40:21;;;;;;;3.13;2.42;;;;;;;20.13;63.78;101750.59;10532376;28;20041;-77
2023/08/10 22:45:24;;;;;;;10.32;3.35;;;;;;;19.69;64.27;101765.38;10531529;28;20049;-79
2023/08/10 22:50:26;;;;;;;5.10;3.20;;;;;;;19.30;65.76;101763.22;10531853;28;20056;-78
2023/08/10 22:55:28;;;;;;;5.32;2.97;;;;;;;18.83;67.08;101766.13;10531715;28;20561;-77
2023/08/10 23:00:31;;;;;;;6.07;2.95;;;;;;;19.08;66.57;101763.94;10559784;28;20044;-78
2023/08/10 23:05:33;;;;;;;6.20;3.17;;;;;;;18.77;67.67;101767.38;10573378;28;20442;-78
2023/08/10 23:10:35;;;;;;;5.75;2.85;;;;;;;18.54;68.13;101771.97;10573695;28;20048;-78